createdAt,value
2022-09-14T00:00:25.145Z,50.867260
2022-09-14T00:01:26.590Z,50.867184
2022-09-14T00:02:26.220Z,50.867229
2022-09-14T00:03:25.199Z,50.867287
2022-09-14T00:04:25.130Z,50.867298
2022-09-14T00:05:25.105Z,50.867397
2022-09-14T00:06:25.115Z,50.867496
2022-09-14T00:07:25.756Z,50.867039
2022-09-14T00:08:25.083Z,50.866768
2022-09-14T00:09:25.072Z,50.866695
2022-09-14T00:10:25.156Z,50.866619
2022-09-14T00:11:25.069Z,50.866650
2022-09-14T00:12:25.047Z,50.866611
2022-09-14T00:13:25.043Z,50.866833
2022-09-14T00:14:25.042Z,50.866817
2022-09-14T00:15:25.025Z,50.866699
2022-09-14T00:16:25.077Z,50.866764
2022-09-14T00:17:25.014Z,50.866680
2022-09-14T00:18:25.004Z,50.866707
2022-09-14T00:19:25.024Z,50.866741
2022-09-14T00:20:24.981Z,50.866714
2022-09-14T00:21:24.980Z,50.866707
2022-09-14T00:22:24.970Z,50.866749
2022-09-14T00:23:24.965Z,50.866760
2022-09-14T00:24:24.972Z,50.866772
2022-09-14T00:25:24.952Z,50.866795
2022-09-14T00:26:24.946Z,50.866798
2022-09-14T00:27:24.929Z,50.866737
2022-09-14T00:28:24.929Z,50.866779
2022-09-14T00:29:24.933Z,50.866665
2022-09-14T00:35:25.730Z,50.866863
2022-09-14T00:36:25.724Z,50.866791
2022-09-14T00:37:25.711Z,50.866795
2022-09-14T00:38:25.721Z,50.866783
2022-09-14T00:39:25.698Z,50.866802
2022-09-14T00:40:26.504Z,50.866817
2022-09-14T00:41:25.682Z,50.866802
2022-09-14T00:42:25.679Z,50.866772
2022-09-14T00:43:25.673Z,50.866791
2022-09-14T00:44:25.655Z,50.866829
2022-09-14T00:45:25.670Z,50.866791
2022-09-14T00:46:25.638Z,50.866783
2022-09-14T00:47:25.638Z,50.866653
2022-09-14T00:48:25.621Z,50.866745
2022-09-14T00:49:25.619Z,50.866917
2022-09-14T00:50:25.608Z,50.866867
2022-09-14T00:51:25.596Z,50.866833
2022-09-14T00:52:25.597Z,50.866833
2022-09-14T00:53:25.575Z,50.866772
2022-09-14T00:54:25.567Z,50.866634
2022-09-14T00:55:25.567Z,50.866634
2022-09-14T00:56:25.550Z,50.866695
2022-09-14T00:57:25.553Z,50.866684
2022-09-14T00:58:25.539Z,50.866753
2022-09-14T00:59:25.532Z,50.866760
2022-09-14T01:00:25.526Z,50.866760
2022-09-14T01:01:25.589Z,50.866760
2022-09-14T01:02:25.624Z,50.866760
2022-09-14T01:03:25.505Z,50.866760
2022-09-14T01:04:25.490Z,50.866699
2022-09-14T01:05:25.492Z,50.866619
2022-09-14T01:06:25.472Z,50.866749
2022-09-14T01:07:25.470Z,50.866741
2022-09-14T01:08:25.459Z,50.866779
2022-09-14T01:09:25.452Z,50.866749
2022-09-14T01:10:26.422Z,50.866737
2022-09-14T01:11:25.435Z,50.866714
2022-09-14T01:12:25.456Z,50.866711
2022-09-14T01:13:25.418Z,50.866722
2022-09-14T01:14:25.493Z,50.866756
2022-09-14T01:15:25.415Z,50.866703
2022-09-14T01:16:25.487Z,50.866753
2022-09-14T01:17:25.390Z,50.866714
2022-09-14T01:18:25.376Z,50.866783
2022-09-14T01:19:25.364Z,50.866760
2022-09-14T01:20:25.373Z,50.866707
2022-09-14T01:21:25.352Z,50.866745
2022-09-14T01:22:25.350Z,50.866768
2022-09-14T01:23:25.339Z,50.866814
2022-09-14T01:24:25.330Z,50.866795
2022-09-14T01:25:25.329Z,50.866779
2022-09-14T01:26:25.338Z,50.866814
2022-09-14T01:27:25.311Z,50.866821
2022-09-14T01:28:25.308Z,50.866814
2022-09-14T01:29:25.293Z,50.866776
2022-09-14T01:30:26.115Z,50.866779
2022-09-14T01:31:25.329Z,50.866749
2022-09-14T01:32:25.270Z,50.866776
2022-09-14T01:33:25.263Z,50.866756
2022-09-14T01:34:25.252Z,50.866764
2022-09-14T01:35:25.242Z,50.866871
2022-09-14T01:36:25.233Z,50.866810
2022-09-14T01:37:25.848Z,50.866768
2022-09-14T01:38:25.222Z,50.866795
2022-09-14T01:39:25.226Z,50.866753
2022-09-14T01:40:25.255Z,50.866764
2022-09-14T01:41:25.215Z,50.866760
2022-09-14T01:42:25.196Z,50.866764
2022-09-14T01:43:25.176Z,50.866772
2022-09-14T01:44:25.205Z,50.866825
2022-09-14T01:45:25.196Z,50.866802
2022-09-14T01:46:25.169Z,50.866821
2022-09-14T01:47:25.141Z,50.866756
2022-09-14T01:48:25.132Z,50.866814
2022-09-14T01:49:25.142Z,50.866825
2022-09-14T01:50:25.120Z,50.866840
2022-09-14T01:51:25.128Z,50.866817
2022-09-14T01:52:25.102Z,50.866806
2022-09-14T01:53:25.124Z,50.866817
2022-09-14T01:54:25.093Z,50.866840
2022-09-14T01:55:25.082Z,50.866802
2022-09-14T01:56:25.087Z,50.866802
2022-09-14T01:57:25.093Z,50.866867
2022-09-14T01:58:25.063Z,50.866867
2022-09-14T01:59:25.051Z,50.866852
2022-09-14T02:00:25.047Z,50.866844
2022-09-14T02:01:25.150Z,50.866852
2022-09-14T02:02:25.136Z,50.866909
2022-09-14T02:03:25.009Z,50.866879
2022-09-14T02:04:25.007Z,50.866898
2022-09-14T02:05:25.004Z,50.866802
2022-09-14T02:06:24.991Z,50.866783
2022-09-14T02:07:24.988Z,50.866825
2022-09-14T02:08:24.980Z,50.866726
2022-09-14T02:09:24.969Z,50.866623
2022-09-14T02:10:24.958Z,50.866631
2022-09-14T02:11:24.953Z,50.866741
2022-09-14T02:12:24.953Z,50.866787
2022-09-14T02:13:24.937Z,50.866661
2022-09-14T02:14:24.930Z,50.866791
2022-09-14T02:15:24.930Z,50.866760
2022-09-14T02:16:24.937Z,50.866787
2022-09-14T02:17:24.924Z,50.866795
2022-09-14T02:18:24.984Z,50.866711
2022-09-14T02:19:24.895Z,50.866783
2022-09-14T02:20:24.889Z,50.866749
2022-09-14T02:21:24.870Z,50.866795
2022-09-14T02:22:24.870Z,50.866798
2022-09-14T02:23:24.868Z,50.866791
2022-09-14T02:24:24.863Z,50.866787
2022-09-14T02:25:24.839Z,50.866787
2022-09-14T02:26:24.826Z,50.866730
2022-09-14T02:27:24.825Z,50.866699
2022-09-14T02:28:24.809Z,50.866692
2022-09-14T02:29:24.815Z,50.866726
2022-09-14T02:30:24.814Z,50.866772
2022-09-14T02:31:24.873Z,50.866840
2022-09-14T02:32:24.784Z,50.866634
2022-09-14T02:33:24.774Z,50.866566
2022-09-14T02:34:24.769Z,50.866585
2022-09-14T02:35:24.754Z,50.866604
2022-09-14T02:36:24.753Z,50.866657
2022-09-14T02:37:24.743Z,50.866650
2022-09-14T02:38:24.747Z,50.866817
2022-09-14T02:39:24.730Z,50.866787
2022-09-14T02:40:24.800Z,50.867104
2022-09-14T02:41:25.442Z,50.866993
2022-09-14T02:42:24.700Z,50.866905
2022-09-14T02:43:24.703Z,50.866837
2022-09-14T02:44:24.692Z,50.866741
2022-09-14T02:45:24.671Z,50.866722
2022-09-14T02:46:24.743Z,50.866821
2022-09-14T02:47:24.656Z,50.866989
2022-09-14T02:48:24.647Z,50.867088
2022-09-14T02:49:24.655Z,50.866833
2022-09-14T02:50:24.667Z,50.866951
2022-09-14T02:51:24.654Z,50.866982
2022-09-14T02:52:24.612Z,50.867050
2022-09-14T02:53:24.617Z,50.867119
2022-09-14T02:54:24.607Z,50.867107
2022-09-14T02:55:24.594Z,50.866909
2022-09-14T02:56:24.590Z,50.867031
2022-09-14T02:57:24.601Z,50.866920
2022-09-14T02:58:24.575Z,50.866886
2022-09-14T02:59:24.565Z,50.866802
2022-09-14T03:00:24.555Z,50.866619
2022-09-14T03:01:24.680Z,50.866764
2022-09-14T03:02:24.662Z,50.866859
2022-09-14T03:03:24.532Z,50.866821
2022-09-14T03:04:24.542Z,50.866970
2022-09-14T03:05:24.527Z,50.867241
2022-09-14T03:06:24.516Z,50.866959
2022-09-14T03:07:24.524Z,50.867176
2022-09-14T03:08:24.499Z,50.867298
2022-09-14T03:09:24.483Z,50.867176
2022-09-14T03:10:24.498Z,50.867115
2022-09-14T03:11:24.490Z,50.866962
2022-09-14T03:12:24.465Z,50.866856
2022-09-14T03:13:24.461Z,50.866966
2022-09-14T03:14:24.955Z,50.866825
2022-09-14T03:15:24.439Z,50.866848
2022-09-14T03:16:24.520Z,50.866886
2022-09-14T03:17:25.421Z,50.866859
2022-09-14T03:18:25.373Z,50.866764
2022-09-14T03:19:24.418Z,50.866753
2022-09-14T03:20:24.393Z,50.866703
2022-09-14T03:21:24.397Z,50.866795
2022-09-14T03:22:24.388Z,50.866772
2022-09-14T03:23:24.377Z,50.866810
2022-09-14T03:24:24.397Z,50.866863
2022-09-14T03:25:24.356Z,50.866859
2022-09-14T03:26:24.382Z,50.866756
2022-09-14T03:27:24.346Z,50.866898
2022-09-14T03:28:24.343Z,50.866753
2022-09-14T03:29:24.330Z,50.866825
2022-09-14T03:30:24.315Z,50.866936
2022-09-14T03:31:24.358Z,50.867023
2022-09-14T03:32:24.311Z,50.867195
2022-09-14T03:33:24.304Z,50.866909
2022-09-14T03:34:24.290Z,50.866886
2022-09-14T03:35:24.286Z,50.866638
2022-09-14T03:36:24.270Z,50.866653
2022-09-14T03:37:24.279Z,50.866650
2022-09-14T03:38:24.342Z,50.866703
2022-09-14T03:39:24.255Z,50.866882
2022-09-14T03:40:24.305Z,50.866871
2022-09-14T03:41:24.244Z,50.866852
2022-09-14T03:42:24.231Z,50.866844
2022-09-14T03:43:24.215Z,50.866840
2022-09-14T03:44:24.205Z,50.866840
2022-09-14T03:45:24.209Z,50.866852
2022-09-14T03:46:24.260Z,50.866848
2022-09-14T03:47:24.196Z,50.866856
2022-09-14T03:48:24.190Z,50.866814
2022-09-14T03:49:24.166Z,50.866806
2022-09-14T03:50:24.169Z,50.866817
2022-09-14T03:51:24.155Z,50.866772
2022-09-14T03:52:24.140Z,50.866795
2022-09-14T03:53:24.145Z,50.866840
2022-09-14T03:54:24.210Z,50.866829
2022-09-14T03:55:24.120Z,50.866844
2022-09-14T03:56:24.112Z,50.866863
2022-09-14T03:57:24.099Z,50.866879
2022-09-14T03:58:26.001Z,50.866901
2022-09-14T03:59:24.082Z,50.866901
2022-09-14T04:00:24.087Z,50.866886
2022-09-14T04:01:24.938Z,50.866898
2022-09-14T04:02:24.090Z,50.866943
2022-09-14T04:03:24.060Z,50.866848
2022-09-14T04:04:24.048Z,50.866856
2022-09-14T04:05:24.041Z,50.866844
2022-09-14T04:06:24.024Z,50.866821
2022-09-14T04:07:24.013Z,50.866783
2022-09-14T04:08:24.896Z,50.866825
2022-09-14T04:09:24.026Z,50.866798
2022-09-14T04:10:24.021Z,50.866840
2022-09-14T04:11:23.992Z,50.866779
2022-09-14T04:12:23.976Z,50.866760
2022-09-14T04:13:23.989Z,50.866871
2022-09-14T04:14:23.976Z,50.866776
2022-09-14T04:15:23.955Z,50.866806
2022-09-14T04:16:23.997Z,50.866825
2022-09-14T04:17:23.949Z,50.866863
2022-09-14T04:18:25.397Z,50.866920
2022-09-14T04:19:23.940Z,50.866859
2022-09-14T04:20:23.914Z,50.866875
2022-09-14T04:21:23.917Z,50.866829
2022-09-14T04:22:23.903Z,50.866795
2022-09-14T04:23:23.895Z,50.866745
2022-09-14T04:24:29.346Z,50.866734
2022-09-14T04:25:25.874Z,50.866749
2022-09-14T04:26:23.879Z,50.866776
2022-09-14T04:27:23.860Z,50.866734
2022-09-14T04:28:23.855Z,50.866760
2022-09-14T04:29:23.847Z,50.866734
2022-09-14T04:30:23.848Z,50.866734
2022-09-14T04:31:23.867Z,50.866722
2022-09-14T04:32:23.818Z,50.866741
2022-09-14T04:33:23.811Z,50.866745
2022-09-14T04:34:23.801Z,50.866798
2022-09-14T04:35:23.790Z,50.866821
2022-09-14T04:36:23.787Z,50.866787
2022-09-14T04:37:24.473Z,50.866802
2022-09-14T04:38:24.768Z,50.866882
2022-09-14T04:39:23.770Z,50.866825
2022-09-14T04:40:23.829Z,50.866848
2022-09-14T04:41:23.744Z,50.866898
2022-09-14T04:42:24.094Z,50.866859
2022-09-14T04:43:23.792Z,50.866787
2022-09-14T04:44:24.415Z,50.866783
2022-09-14T04:45:25.449Z,50.866798
2022-09-14T04:46:23.818Z,50.866833
2022-09-14T04:47:23.702Z,50.866772
2022-09-14T04:48:23.690Z,50.866753
2022-09-14T04:49:23.680Z,50.866764
2022-09-14T04:50:24.371Z,50.866714
2022-09-14T04:51:23.659Z,50.866749
2022-09-14T04:52:23.652Z,50.866646
2022-09-14T04:53:23.642Z,50.866852
2022-09-14T04:54:23.643Z,50.866856
2022-09-14T04:55:23.636Z,50.866814
2022-09-14T04:56:23.620Z,50.866817
2022-09-14T04:57:23.622Z,50.866764
2022-09-14T04:58:23.605Z,50.866871
2022-09-14T04:59:23.610Z,50.866768
2022-09-14T05:00:23.598Z,50.866867
2022-09-14T05:01:23.625Z,50.866844
2022-09-14T05:02:23.709Z,50.866924
2022-09-14T05:03:23.564Z,50.866959
2022-09-14T05:04:23.573Z,50.866890
2022-09-14T05:05:23.538Z,50.866901
2022-09-14T05:06:24.541Z,50.866955
2022-09-14T05:07:23.541Z,50.866917
2022-09-14T05:08:23.543Z,50.866879
2022-09-14T05:09:23.523Z,50.867172
2022-09-14T05:10:23.556Z,50.867001
2022-09-14T05:11:23.516Z,50.866959
2022-09-14T05:12:23.495Z,50.867062
2022-09-14T05:13:23.494Z,50.867062
2022-09-14T05:14:23.488Z,50.867062
2022-09-14T05:15:23.514Z,50.867031
2022-09-14T05:16:23.623Z,50.866821
2022-09-14T05:17:23.454Z,50.866516
2022-09-14T05:18:23.559Z,50.866508
2022-09-14T05:19:23.464Z,50.866425
2022-09-14T05:20:23.435Z,50.866432
2022-09-14T05:21:24.436Z,50.866192
2022-09-14T05:22:23.416Z,50.865917
2022-09-14T05:23:23.425Z,50.866272
2022-09-14T05:24:23.399Z,50.866608
2022-09-14T05:25:23.407Z,50.866562
2022-09-14T05:26:23.408Z,50.866623
2022-09-14T05:27:23.392Z,50.866482
2022-09-14T05:28:23.378Z,50.866268
2022-09-14T05:29:23.357Z,50.866146
2022-09-14T05:30:23.365Z,50.866310
2022-09-14T05:31:23.420Z,50.866501
2022-09-14T05:32:23.349Z,50.866573
2022-09-14T05:33:23.327Z,50.866699
2022-09-14T05:34:55.957Z,50.866451
2022-09-14T05:35:23.323Z,50.866539
2022-09-14T05:36:23.314Z,50.866577
2022-09-14T05:37:23.313Z,50.866543
2022-09-14T05:38:23.282Z,50.866585
2022-09-14T05:39:25.023Z,50.866562
2022-09-14T05:40:23.309Z,50.866600
2022-09-14T05:41:23.285Z,50.866680
2022-09-14T05:42:23.257Z,50.866676
2022-09-14T05:43:23.248Z,50.866722
2022-09-14T05:44:23.255Z,50.866642
2022-09-14T05:45:23.252Z,50.866669
2022-09-14T05:46:23.334Z,50.866661
2022-09-14T05:47:23.219Z,50.866665
2022-09-14T05:48:23.205Z,50.866684
2022-09-14T05:49:23.210Z,50.866676
2022-09-14T05:50:23.221Z,50.866684
2022-09-14T05:51:23.201Z,50.866714
2022-09-14T05:52:23.177Z,50.866722
2022-09-14T05:53:23.175Z,50.866779
2022-09-14T05:54:23.168Z,50.866825
2022-09-14T05:55:23.161Z,50.866764
2022-09-14T05:56:23.152Z,50.866703
2022-09-14T05:57:23.141Z,50.866669
2022-09-14T05:58:23.126Z,50.866646
2022-09-14T05:59:23.126Z,50.866684
2022-09-14T06:00:23.119Z,50.866707
2022-09-14T06:01:23.215Z,50.866688
2022-09-14T06:02:23.180Z,50.866661
2022-09-14T06:03:23.126Z,50.866627
2022-09-14T06:04:23.091Z,50.866589
2022-09-14T06:05:23.162Z,50.866631
2022-09-14T06:06:23.076Z,50.866570
2022-09-14T06:07:23.069Z,50.866611
2022-09-14T06:08:23.062Z,50.866619
2022-09-14T06:09:23.055Z,50.866631
2022-09-14T06:10:23.044Z,50.866589
2022-09-14T06:11:23.050Z,50.866573
2022-09-14T06:12:23.021Z,50.866608
2022-09-14T06:13:23.045Z,50.866596
2022-09-14T06:14:23.023Z,50.866646
2022-09-14T06:15:23.001Z,50.866650
2022-09-14T06:16:23.003Z,50.866604
2022-09-14T06:17:22.982Z,50.866657
2022-09-14T06:18:22.974Z,50.866566
2022-09-14T06:19:22.981Z,50.866615
2022-09-14T06:20:23.469Z,50.866623
2022-09-14T06:21:22.937Z,50.866562
2022-09-14T06:22:23.977Z,50.866577
2022-09-14T06:23:22.932Z,50.866314
2022-09-14T06:24:22.929Z,50.866230
2022-09-14T06:25:22.924Z,50.866230
2022-09-14T06:26:22.906Z,50.866230
2022-09-14T06:27:23.552Z,50.866360
2022-09-14T06:28:22.943Z,50.866524
2022-09-14T06:29:22.878Z,50.866711
2022-09-14T06:30:22.873Z,50.866745
2022-09-14T06:31:22.876Z,50.866821
2022-09-14T06:32:22.925Z,50.866970
2022-09-14T06:33:22.859Z,50.866947
2022-09-14T06:34:22.839Z,50.866947
2022-09-14T06:35:22.829Z,50.866947
2022-09-14T06:36:22.829Z,50.866947
2022-09-14T06:37:22.821Z,50.866947
2022-09-14T06:38:22.816Z,50.866947
2022-09-14T06:39:22.805Z,50.866947
2022-09-14T06:40:22.843Z,50.867031
2022-09-14T06:41:22.783Z,50.867054
2022-09-14T06:42:22.789Z,50.867054
2022-09-14T06:43:22.789Z,50.867054
2022-09-14T06:44:22.756Z,50.867054
2022-09-14T06:45:22.769Z,50.867054
2022-09-14T06:46:22.752Z,50.867054
2022-09-14T06:47:24.478Z,50.867054
2022-09-14T06:48:23.543Z,50.867077
2022-09-14T06:49:23.788Z,50.867081
2022-09-14T06:50:25.761Z,50.867081
2022-09-14T06:51:22.705Z,50.866814
2022-09-14T06:52:22.700Z,50.866714
2022-09-14T06:53:22.686Z,50.866688
2022-09-14T06:54:22.723Z,50.866711
2022-09-14T06:55:22.693Z,50.866718
2022-09-14T06:56:22.672Z,50.866745
2022-09-14T06:57:22.652Z,50.866692
2022-09-14T06:58:22.650Z,50.866642
2022-09-14T06:59:23.550Z,50.866665
2022-09-14T07:00:22.639Z,50.866714
2022-09-14T07:01:22.629Z,50.866718
2022-09-14T07:02:22.656Z,50.866730
2022-09-14T07:03:22.609Z,50.866726
2022-09-14T07:04:22.600Z,50.866673
2022-09-14T07:05:22.616Z,50.866673
2022-09-14T07:06:22.677Z,50.866680
2022-09-14T07:07:22.578Z,50.866642
2022-09-14T07:08:22.603Z,50.866764
2022-09-14T07:09:22.571Z,50.866859
2022-09-14T07:10:22.557Z,50.866707
2022-09-14T07:11:22.559Z,50.866806
2022-09-14T07:12:22.565Z,50.866856
2022-09-14T07:13:22.571Z,50.866852
2022-09-14T07:14:22.554Z,50.866875
2022-09-14T07:15:22.560Z,50.866848
2022-09-14T07:16:22.570Z,50.866875
2022-09-14T07:17:22.495Z,50.866859
2022-09-14T07:18:22.516Z,50.866753
2022-09-14T07:19:22.497Z,50.866852
2022-09-14T07:20:23.049Z,50.866837
2022-09-14T07:21:22.501Z,50.866787
2022-09-14T07:22:22.495Z,50.866753
2022-09-14T07:23:22.471Z,50.866596
2022-09-14T07:24:23.594Z,50.866676
2022-09-14T07:25:22.430Z,50.866699
2022-09-14T07:26:22.977Z,50.866779
2022-09-14T07:27:22.424Z,50.866798
2022-09-14T07:28:22.431Z,50.866829
2022-09-14T07:29:22.408Z,50.866882
2022-09-14T07:30:22.421Z,50.866810
2022-09-14T07:31:22.517Z,50.866852
2022-09-14T07:32:22.411Z,50.866875
2022-09-14T07:33:22.380Z,50.866741
2022-09-14T07:34:22.381Z,50.866718
2022-09-14T07:35:22.349Z,50.866753
2022-09-14T07:36:22.349Z,50.866756
2022-09-14T07:37:22.335Z,50.866745
2022-09-14T07:38:35.823Z,50.866798
2022-09-14T07:39:24.332Z,50.866798
2022-09-14T07:40:22.390Z,50.866749
2022-09-14T07:41:22.311Z,50.866783
2022-09-14T07:42:22.306Z,50.866776
2022-09-14T07:43:23.083Z,50.866768
2022-09-14T07:44:22.289Z,50.866726
2022-09-14T07:45:22.273Z,50.866726
2022-09-14T07:46:22.356Z,50.866734
2022-09-14T07:47:22.254Z,50.866726
2022-09-14T07:48:22.248Z,50.866825
2022-09-14T07:49:22.247Z,50.866772
2022-09-14T07:50:22.345Z,50.866783
2022-09-14T07:51:22.248Z,50.866726
2022-09-14T07:52:22.218Z,50.866749
2022-09-14T07:53:23.065Z,50.866795
2022-09-14T07:54:22.224Z,50.866772
2022-09-14T07:55:22.194Z,50.866737
2022-09-14T07:56:22.185Z,50.866737
2022-09-14T07:57:39.363Z,50.866734
2022-09-14T07:58:24.177Z,50.866741
2022-09-14T07:59:35.550Z,50.866741
2022-09-14T08:00:24.163Z,50.866711
2022-09-14T08:01:22.209Z,50.866734
2022-09-14T08:02:22.171Z,50.866768
2022-09-14T08:03:22.123Z,50.866795
2022-09-14T08:04:22.125Z,50.866760
2022-09-14T08:05:22.105Z,50.866756
2022-09-14T08:06:22.099Z,50.866737
2022-09-14T08:07:22.107Z,50.866768
2022-09-14T08:08:22.092Z,50.866768
2022-09-14T08:09:22.080Z,50.866821
2022-09-14T08:10:22.098Z,50.866871
2022-09-14T08:11:22.081Z,50.866901
2022-09-14T08:12:22.067Z,50.866894
2022-09-14T08:13:22.049Z,50.866859
2022-09-14T08:14:22.063Z,50.866852
2022-09-14T08:15:26.343Z,50.866844
2022-09-14T08:16:24.034Z,50.866798
2022-09-14T08:17:22.013Z,50.866798
2022-09-14T08:18:22.006Z,50.866810
2022-09-14T08:19:22.035Z,50.866806
2022-09-14T08:20:21.987Z,50.866428
2022-09-14T08:21:22.003Z,50.866199
2022-09-14T08:22:21.994Z,50.866520
2022-09-14T08:23:22.008Z,50.866665
2022-09-14T08:24:21.984Z,50.866833
2022-09-14T08:25:21.954Z,50.866917
2022-09-14T08:26:22.062Z,50.866879
2022-09-14T08:27:21.931Z,50.866810
2022-09-14T08:28:21.928Z,50.866779
2022-09-14T08:29:21.935Z,50.866894
2022-09-14T08:30:22.530Z,50.866848
2022-09-14T08:31:22.028Z,50.866787
2022-09-14T08:32:21.890Z,50.866711
2022-09-14T08:33:21.879Z,50.866707
2022-09-14T08:34:21.869Z,50.866642
2022-09-14T08:35:40.797Z,50.866867
2022-09-14T08:36:23.873Z,50.866917
2022-09-14T08:37:21.857Z,50.866879
2022-09-14T08:38:21.839Z,50.866894
2022-09-14T08:39:21.837Z,50.866867
2022-09-14T08:40:21.852Z,50.866859
2022-09-14T08:41:21.835Z,50.866859
2022-09-14T08:42:22.591Z,50.866951
2022-09-14T08:43:21.801Z,50.866974
2022-09-14T08:44:21.851Z,50.866898
2022-09-14T08:45:21.852Z,50.866817
2022-09-14T08:46:21.802Z,50.866734
2022-09-14T08:47:21.765Z,50.866821
2022-09-14T08:48:21.782Z,50.866833
2022-09-14T08:49:21.780Z,50.866879
2022-09-14T08:50:21.755Z,50.866814
2022-09-14T08:51:21.744Z,50.866787
2022-09-14T08:52:22.900Z,50.866856
2022-09-14T08:53:22.785Z,50.866875
2022-09-14T08:54:21.703Z,50.866833
2022-09-14T08:55:21.721Z,50.866814
2022-09-14T08:56:21.726Z,50.866821
2022-09-14T08:57:21.695Z,50.866756
2022-09-14T08:58:22.606Z,50.866787
2022-09-14T08:59:21.679Z,50.866814
2022-09-14T09:00:21.684Z,50.866787
2022-09-14T09:01:21.713Z,50.866833
2022-09-14T09:02:21.645Z,50.866730
2022-09-14T09:03:22.560Z,50.867039
2022-09-14T09:04:21.662Z,50.867062
2022-09-14T09:05:21.635Z,50.866936
2022-09-14T09:06:21.637Z,50.866993
2022-09-14T09:07:21.600Z,50.866840
2022-09-14T09:08:21.621Z,50.866779
2022-09-14T09:09:21.590Z,50.866817
2022-09-14T09:10:21.585Z,50.866848
2022-09-14T09:11:21.586Z,50.866856
2022-09-14T09:12:21.574Z,50.866909
2022-09-14T09:13:21.646Z,50.866985
2022-09-14T09:14:21.591Z,50.867031
2022-09-14T09:15:21.557Z,50.866982
2022-09-14T09:16:22.592Z,50.867043
2022-09-14T09:17:21.519Z,50.867001
2022-09-14T09:18:21.528Z,50.867050
2022-09-14T09:19:23.937Z,50.867031
2022-09-14T09:20:21.523Z,50.867096
2022-09-14T09:21:21.503Z,50.867073
2022-09-14T09:22:21.536Z,50.867039
2022-09-14T09:23:21.633Z,50.866867
2022-09-14T09:24:21.478Z,50.866833
2022-09-14T09:25:21.494Z,50.866848
2022-09-14T09:26:21.511Z,50.866875
2022-09-14T09:27:21.450Z,50.866776
2022-09-14T09:28:21.450Z,50.866737
2022-09-14T09:29:21.436Z,50.866695
2022-09-14T09:30:21.426Z,50.866692
2022-09-14T09:31:21.450Z,50.866695
2022-09-14T09:32:21.412Z,50.866707
2022-09-14T09:33:21.547Z,50.866791
2022-09-14T09:34:21.396Z,50.866959
2022-09-14T09:35:21.393Z,50.866871
2022-09-14T09:36:21.386Z,50.866772
2022-09-14T09:37:21.372Z,50.866779
2022-09-14T09:38:21.370Z,50.866684
2022-09-14T09:39:21.397Z,50.866623
2022-09-14T09:40:21.402Z,50.866726
2022-09-14T09:41:21.350Z,50.866787
2022-09-14T09:42:21.343Z,50.866753
2022-09-14T09:43:45.383Z,50.866711
2022-09-14T09:44:23.361Z,50.866714
2022-09-14T09:45:21.325Z,50.866730
2022-09-14T09:46:21.467Z,50.866734
2022-09-14T09:47:21.297Z,50.866795
2022-09-14T09:48:21.326Z,50.866798
2022-09-14T09:49:21.277Z,50.866798
2022-09-14T09:50:21.300Z,50.866798
2022-09-14T09:51:24.057Z,50.866806
2022-09-14T09:52:22.259Z,50.866810
2022-09-14T09:53:22.118Z,50.866833
2022-09-14T09:54:21.229Z,50.866817
2022-09-14T09:55:22.560Z,50.866829
2022-09-14T09:56:21.241Z,50.866814
2022-09-14T09:57:21.237Z,50.866817
2022-09-14T09:58:21.205Z,50.866779
2022-09-14T09:59:21.204Z,50.866753
2022-09-14T10:00:21.186Z,50.866798
2022-09-14T10:01:21.294Z,50.866795
2022-09-14T10:02:21.254Z,50.866776
2022-09-14T10:03:21.162Z,50.866798
2022-09-14T10:04:21.162Z,50.866760
2022-09-14T10:05:22.047Z,50.866779
2022-09-14T10:06:21.158Z,50.866776
2022-09-14T10:07:22.044Z,50.866688
2022-09-14T10:08:21.125Z,50.866737
2022-09-14T10:09:21.119Z,50.866798
2022-09-14T10:10:21.148Z,50.866856
2022-09-14T10:11:21.111Z,50.866760
2022-09-14T10:12:21.092Z,50.866886
2022-09-14T10:13:21.084Z,50.866840
2022-09-14T10:14:21.062Z,50.866772
2022-09-14T10:15:22.069Z,50.866821
2022-09-14T10:16:21.132Z,50.866863
2022-09-14T10:17:21.049Z,50.866871
2022-09-14T10:18:21.074Z,50.866856
2022-09-14T10:19:21.033Z,50.866817
2022-09-14T10:20:21.030Z,50.866722
2022-09-14T10:21:21.019Z,50.866844
2022-09-14T10:22:25.814Z,50.866875
2022-09-14T10:23:23.037Z,50.866692
2022-09-14T10:24:20.998Z,50.866676
2022-09-14T10:25:20.993Z,50.866875
2022-09-14T10:26:20.987Z,50.866829
2022-09-14T10:27:21.656Z,50.866760
2022-09-14T10:28:24.941Z,50.866703
2022-09-14T10:29:20.957Z,50.866779
2022-09-14T10:30:20.980Z,50.866821
2022-09-14T10:31:21.031Z,50.866959
2022-09-14T10:32:20.926Z,50.866978
2022-09-14T10:33:20.947Z,50.866848
2022-09-14T10:34:20.926Z,50.866791
2022-09-14T10:35:20.914Z,50.866814
2022-09-14T10:36:20.934Z,50.867039
2022-09-14T10:37:20.896Z,50.867012
2022-09-14T10:38:21.548Z,50.866932
2022-09-14T10:39:24.179Z,50.866901
2022-09-14T10:40:23.044Z,50.866959
2022-09-14T10:41:20.863Z,50.867069
2022-09-14T10:42:20.859Z,50.867321
2022-09-14T10:43:21.563Z,50.867214
2022-09-14T10:44:20.844Z,50.867138
2022-09-14T10:45:20.826Z,50.866993
2022-09-14T10:46:20.881Z,50.866970
2022-09-14T10:47:20.822Z,50.866844
2022-09-14T10:48:20.812Z,50.866947
2022-09-14T10:49:20.811Z,50.866970
2022-09-14T10:50:20.840Z,50.867046
2022-09-14T10:51:20.775Z,50.867115
2022-09-14T10:52:20.767Z,50.866951
2022-09-14T10:53:20.754Z,50.866573
2022-09-14T10:54:20.765Z,50.866581
2022-09-14T10:55:20.772Z,50.866585
2022-09-14T10:56:20.752Z,50.866570
2022-09-14T10:57:21.597Z,50.866673
2022-09-14T10:58:24.244Z,50.866722
2022-09-14T10:59:23.090Z,50.866829
2022-09-14T11:00:20.720Z,50.866924
2022-09-14T11:01:21.713Z,50.866703
2022-09-14T11:02:21.741Z,50.866631
2022-09-14T11:03:20.695Z,50.866776
2022-09-14T11:04:24.106Z,50.866764
2022-09-14T11:05:20.677Z,50.866722
2022-09-14T11:06:20.717Z,50.866924
2022-09-14T11:07:20.652Z,50.866634
2022-09-14T11:08:20.656Z,50.866550
2022-09-14T11:09:21.568Z,50.866638
2022-09-14T11:10:20.641Z,50.866669
2022-09-14T11:11:20.640Z,50.866394
2022-09-14T11:12:20.615Z,50.866486
2022-09-14T11:13:20.595Z,50.866516
2022-09-14T11:14:20.604Z,50.866623
2022-09-14T11:15:20.598Z,50.866810
2022-09-14T11:16:20.622Z,50.866966
2022-09-14T11:17:20.589Z,50.867149
2022-09-14T11:18:20.554Z,50.867344
2022-09-14T11:19:22.059Z,50.867176
2022-09-14T11:20:20.549Z,50.867058
2022-09-14T11:21:20.593Z,50.866833
2022-09-14T11:22:20.536Z,50.866573
2022-09-14T11:23:21.523Z,50.866375
2022-09-14T11:24:20.523Z,50.866508
2022-09-14T11:25:21.501Z,50.866627
2022-09-14T11:26:20.524Z,50.866993
2022-09-14T11:27:20.493Z,50.867016
2022-09-14T11:28:20.500Z,50.867207
2022-09-14T11:29:20.488Z,50.867245